Terminal Aerodrome Forecast
Issued by NWS Charleston, WV

Home | Current Version | Previous Version | Text Only | Print | Product List | Glossary On
Versions: 1 2 3 4 5 6 7 8 9 10 11 12 13 14 15 16 17 18 19 20 21 22 23 24 25 26 27 28 29 30 31 32 33 34 35 36 37 38 39 40 41 42 43 44 45 46
982
FTUS41 KRLX 101725
TAFBKW
TAF
KBKW 101725Z 1018/1118 29012G18KT P6SM -RA FEW013 BKN018 OVC070
     FM102100 29011G17KT 5SM -SNRA OVC012
     FM102200 30011KT 2SM -SN BKN008 OVC018
     FM110400 31007KT 3SM -SN OVC018
     FM110600 31007KT P6SM BKN025 OVC060
     FM111100 28009KT P6SM SKC=

USA.gov is the U.S. government's official web portal to all federal, state and local government web resources and services.